Time;durP1;ratioP1;P1;durP2;ratioP2;P2;SDS_P1;SDS_P2;PMS_P1;PMS_P2;Temp;Humidity;BMP_temperature;BMP_pressure;BME280_temperature;BME280_humidity;BME280_pressure;Samples;Min_cycle;Max_cycle;Signal;HPM_P1;HPM_P2
2023/05/20 00:00:49;;;;;;;19.93;13.83;;;;;;;8.59;100.00;97246.41;10458457;28;20601;-64
2023/05/20 00:05:50;;;;;;;18.87;13.30;;;;;;;8.81;100.00;97241.97;10459994;28;20224;-65
2023/05/20 00:10:50;;;;;;;20.80;13.37;;;;;;;9.01;100.00;97242.84;10459924;28;20290;-65
2023/05/20 00:15:51;;;;;;;16.73;12.17;;;;;;;8.99;100.00;97239.53;10459437;28;20220;-65
2023/05/20 00:20:53;;;;;;;17.47;12.40;;;;;;;9.02;100.00;97237.50;10459749;28;20199;-65
2023/05/20 00:25:53;;;;;;;19.03;13.40;;;;;;;8.97;100.00;97238.84;10458921;28;20575;-64
2023/05/20 00:30:53;;;;;;;16.37;11.80;;;;;;;8.98;100.00;97230.06;10459483;28;20188;-65
2023/05/20 00:35:54;;;;;;;19.03;13.23;;;;;;;9.02;100.00;97227.03;10457470;28;20258;-65
2023/05/20 00:40:54;;;;;;;18.13;13.20;;;;;;;9.09;100.00;97222.91;10458680;28;20207;-65
2023/05/20 00:45:55;;;;;;;18.63;13.83;;;;;;;9.32;100.00;97219.25;10458147;28;20214;-64
2023/05/20 00:50:55;;;;;;;25.10;15.70;;;;;;;9.44;100.00;97223.38;10457868;28;20188;-64
2023/05/20 00:55:56;;;;;;;22.27;16.23;;;;;;;9.41;100.00;97218.41;10458117;28;20664;-65
2023/05/20 01:00:56;;;;;;;25.93;17.10;;;;;;;9.38;100.00;97231.78;10457706;28;20194;-65
2023/05/20 01:05:56;;;;;;;24.20;16.30;;;;;;;9.39;100.00;97230.81;10457767;28;20211;-65
2023/05/20 01:11:05;;;;;;;25.33;17.33;;;;;;;9.41;100.00;97234.13;10456286;28;20183;-64
2023/05/20 01:16:06;;;;;;;25.23;17.90;;;;;;;9.57;100.00;97223.94;10439159;28;20306;-65
2023/05/20 01:21:10;;;;;;;27.97;18.17;;;;;;;9.48;100.00;97230.00;10457382;28;20188;-65
2023/05/20 01:26:12;;;;;;;28.10;18.90;;;;;;;9.42;100.00;97220.09;10456536;28;20607;-64
2023/05/20 01:31:18;;;;;;;28.10;19.00;;;;;;;9.40;100.00;97217.59;10456801;28;20227;-64
2023/05/20 01:36:20;;;;;;;26.63;17.90;;;;;;;9.43;100.00;97221.72;10455380;28;20637;-64
2023/05/20 01:41:22;;;;;;;29.20;19.90;;;;;;;9.34;100.00;97225.16;10456394;28;20184;-65
2023/05/20 01:46:23;;;;;;;26.17;19.53;;;;;;;9.30;100.00;97223.78;10438283;28;20588;-64
2023/05/20 01:51:23;;;;;;;28.27;19.40;;;;;;;9.29;100.00;97230.78;10456044;28;20180;-64
2023/05/20 01:56:24;;;;;;;30.27;20.50;;;;;;;9.24;100.00;97223.34;10455643;28;20281;-64
2023/05/20 02:01:24;;;;;;;28.33;20.47;;;;;;;9.17;100.00;97210.97;10455827;28;20275;-64
2023/05/20 02:06:25;;;;;;;28.37;19.70;;;;;;;9.08;100.00;97209.97;10453375;28;20315;-65
2023/05/20 02:11:25;;;;;;;28.90;19.70;;;;;;;8.99;100.00;97218.63;10455397;28;20195;-65
2023/05/20 02:16:28;;;;;;;29.03;19.90;;;;;;;8.71;100.00;97213.19;10455341;28;20211;-66
2023/05/20 02:21:28;;;;;;;31.63;21.50;;;;;;;8.56;100.00;97215.34;10453617;28;20270;-65
2023/05/20 02:26:28;;;;;;;28.67;21.43;;;;;;;8.53;100.00;97203.38;10454393;28;20298;-66
2023/05/20 02:31:29;;;;;;;34.70;23.63;;;;;;;8.48;100.00;97196.88;10452975;28;20199;-66
2023/05/20 02:36:31;;;;;;;34.67;22.73;;;;;;;8.48;100.00;97189.03;10454459;28;20204;-66
2023/05/20 02:41:31;;;;;;;37.33;26.20;;;;;;;8.50;100.00;97195.78;10456323;28;20655;-66
2023/05/20 02:46:32;;;;;;;41.07;26.47;;;;;;;8.41;100.00;97196.56;10452909;28;20306;-65
2023/05/20 02:51:33;;;;;;;39.03;26.33;;;;;;;8.44;100.00;97198.94;10411112;28;20211;-66
2023/05/20 02:56:33;;;;;;;40.67;28.33;;;;;;;8.35;100.00;97200.50;10410720;28;20243;-66
2023/05/20 03:01:35;;;;;;;42.50;27.03;;;;;;;8.31;100.00;97200.91;10410745;28;20219;-65
2023/05/20 03:06:36;;;;;;;41.20;27.27;;;;;;;8.36;100.00;97198.72;10410636;28;20331;-65
2023/05/20 03:11:37;;;;;;;43.93;27.30;;;;;;;8.40;100.00;97189.66;10394091;28;20238;-66
2023/05/20 03:16:37;;;;;;;43.27;27.13;;;;;;;8.46;100.00;97188.34;10411279;28;20196;-66
2023/05/20 03:21:37;;;;;;;40.57;28.23;;;;;;;8.48;100.00;97199.50;10410120;28;20191;-66
2023/05/20 03:26:41;;;;;;;42.37;27.53;;;;;;;8.61;100.00;97196.66;10409968;28;20748;-66
2023/05/20 03:31:42;;;;;;;46.47;27.10;;;;;;;8.64;100.00;97201.63;10410154;28;20604;-65
2023/05/20 03:36:43;;;;;;;42.70;28.27;;;;;;;8.70;100.00;97201.09;10409897;28;20232;-66
2023/05/20 03:41:44;;;;;;;42.37;28.70;;;;;;;8.63;100.00;97197.34;10409131;28;20188;-66
2023/05/20 03:46:44;;;;;;;41.27;27.27;;;;;;;8.65;100.00;97204.09;10408794;28;20216;-66
2023/05/20 03:51:46;;;;;;;44.33;27.90;;;;;;;8.65;100.00;97203.25;10409342;28;20188;-65
2023/05/20 03:56:48;;;;;;;44.17;28.80;;;;;;;8.62;100.00;97206.97;10408894;28;20278;-65
2023/05/20 04:01:49;;;;;;;48.20;31.90;;;;;;;8.76;100.00;97205.78;10393200;28;20573;-66
2023/05/20 04:06:49;;;;;;;47.07;30.37;;;;;;;8.80;100.00;97207.16;10410303;28;20311;-66
2023/05/20 04:11:50;;;;;;;49.57;30.47;;;;;;;8.74;100.00;97205.94;10392709;28;20181;-66
2023/05/20 04:16:51;;;;;;;43.33;29.27;;;;;;;8.87;100.00;97195.22;10392228;28;20583;-66
2023/05/20 04:21:51;;;;;;;43.70;28.50;;;;;;;8.76;100.00;97213.63;10410197;28;20211;-66
2023/05/20 04:26:52;;;;;;;43.47;27.83;;;;;;;8.75;100.00;97211.97;10392464;28;20650;-66
2023/05/20 04:31:52;;;;;;;45.57;26.00;;;;;;;9.01;100.00;97220.16;10397689;28;20674;-66
2023/05/20 04:36:53;;;;;;;38.90;24.70;;;;;;;9.20;100.00;97208.88;10417719;28;20661;-66
2023/05/20 04:41:53;;;;;;;33.43;23.93;;;;;;;9.32;100.00;97193.09;10399528;28;20191;-65
2023/05/20 04:46:55;;;;;;;36.53;23.40;;;;;;;9.45;100.00;97199.72;10399620;28;20224;-66
2023/05/20 04:51:55;;;;;;;41.20;24.30;;;;;;;9.38;100.00;97192.53;10399351;28;20237;-66
2023/05/20 04:56:56;;;;;;;35.43;23.47;;;;;;;9.24;100.00;97194.59;10416963;28;20252;-66
2023/05/20 05:01:56;;;;;;;31.73;20.60;;;;;;;9.34;100.00;97183.31;10416810;28;20196;-65
2023/05/20 05:06:57;;;;;;;35.10;21.77;;;;;;;9.24;100.00;97178.91;10398667;28;20221;-65
2023/05/20 05:11:57;;;;;;;37.43;23.90;;;;;;;9.24;100.00;97178.09;10416516;28;20216;-66
2023/05/20 05:16:58;;;;;;;41.37;25.43;;;;;;;9.44;100.00;97189.38;10398277;28;20609;-66
2023/05/20 05:21:58;;;;;;;39.43;25.10;;;;;;;9.68;100.00;97190.75;10416036;28;20223;-66
2023/05/20 05:26:59;;;;;;;40.23;24.10;;;;;;;9.72;100.00;97189.50;10397728;28;20307;-66
2023/05/20 05:31:59;;;;;;;40.23;25.33;;;;;;;9.66;100.00;97190.88;10397820;28;20192;-65
2023/05/20 05:37:00;;;;;;;41.63;25.30;;;;;;;9.84;100.00;97192.81;10415203;28;20279;-66
2023/05/20 05:42:00;;;;;;;44.47;26.30;;;;;;;10.03;100.00;97179.69;10414231;28;20180;-66
2023/05/20 05:47:01;;;;;;;42.93;25.83;;;;;;;10.19;100.00;97176.47;10396784;28;20236;-65
2023/05/20 05:52:02;;;;;;;34.65;23.38;;;;;;;10.63;100.00;97178.56;10414571;28;20184;-65
2023/05/20 05:57:03;;;;;;;42.35;24.90;;;;;;;10.64;100.00;97175.78;10474252;23;20249;-65
2023/05/20 06:02:05;;;;;;;37.42;24.92;;;;;;;11.01;100.00;97172.25;10536560;28;20191;-67
2023/05/20 06:07:06;;;;;;;32.47;22.80;;;;;;;11.19;100.00;97169.66;10588069;27;20243;-66
2023/05/20 06:12:06;;;;;;;36.97;23.85;;;;;;;10.97;100.00;97175.34;10623329;27;20260;-67
2023/05/20 06:17:07;;;;;;;37.45;21.92;;;;;;;11.43;100.00;97170.84;10622895;27;20558;-67
2023/05/20 06:22:07;;;;;;;34.80;21.73;;;;;;;11.07;100.00;97155.94;10622942;27;20195;-67
2023/05/20 06:27:08;;;;;;;34.88;23.55;;;;;;;11.12;100.00;97167.75;10604178;27;20300;-66
2023/05/20 06:32:08;;;;;;;32.58;22.10;;;;;;;11.56;100.00;97168.69;10603990;27;20219;-66
2023/05/20 06:37:10;;;;;;;35.80;23.10;;;;;;;11.51;100.00;97164.84;10603683;27;20635;-67
2023/05/20 06:42:10;;;;;;;38.97;24.25;;;;;;;11.58;100.00;97164.09;10603529;27;20666;-66
2023/05/20 06:47:13;;;;;;;43.42;25.10;;;;;;;11.54;100.00;97165.38;10603204;27;20221;-67
2023/05/20 06:52:14;;;;;;;39.25;24.58;;;;;;;11.57;100.00;97166.88;10603094;27;20663;-67
2023/05/20 06:57:15;;;;;;;39.83;25.08;;;;;;;11.78;100.00;97156.06;10602742;27;20225;-66
2023/05/20 07:02:15;;;;;;;35.55;23.40;;;;;;;11.88;100.00;97140.19;10602821;27;20670;-66
2023/05/20 07:07:16;;;;;;;37.50;24.02;;;;;;;12.11;100.00;97151.03;10602673;27;20209;-67
2023/05/20 07:12:18;;;;;;;38.15;24.83;;;;;;;12.18;100.00;97125.81;10602727;27;20699;-66
2023/05/20 07:17:18;;;;;;;35.55;24.83;;;;;;;12.21;100.00;97127.31;10620649;27;20201;-67
2023/05/20 07:22:20;;;;;;;35.58;22.52;;;;;;;12.41;100.00;97136.59;10602166;27;20246;-66
2023/05/20 07:27:27;;;;;;;35.13;22.85;;;;;;;13.12;100.00;97116.06;10602295;27;20714;-67
2023/05/20 07:32:28;;;;;;;37.78;24.38;;;;;;;12.49;100.00;97120.84;10594777;27;20233;-66
2023/05/20 07:37:29;;;;;;;30.55;22.63;;;;;;;12.84;100.00;97124.25;10601270;27;20201;-67
2023/05/20 07:42:29;;;;;;;35.00;22.67;;;;;;;13.41;100.00;97125.34;10601616;28;20659;-67
2023/05/20 07:47:33;;;;;;;34.67;24.10;;;;;;;14.24;100.00;97100.53;10601501;28;20216;-67
2023/05/20 07:52:35;;;;;;;29.52;22.73;;;;;;;14.88;92.55;97069.78;10601538;28;20305;-67
2023/05/20 07:57:36;;;;;;;29.88;21.00;;;;;;;15.85;87.71;97067.34;10601122;28;20311;-67
2023/05/20 08:02:37;;;;;;;31.50;21.38;;;;;;;15.43;88.38;97065.25;10601318;28;20693;-68
2023/05/20 08:07:37;;;;;;;30.98;23.02;;;;;;;15.41;88.60;97072.53;10608259;27;20208;-67
2023/05/20 08:12:38;;;;;;;27.42;21.05;;;;;;;16.85;85.77;97065.13;10609551;27;20204;-67
2023/05/20 08:17:39;;;;;;;24.58;19.92;;;;;;;17.90;77.85;97011.63;10609141;27;20246;-68
2023/05/20 08:22:40;;;;;;;21.17;16.42;;;;;;;17.72;73.33;96975.84;10609152;27;20237;-67
2023/05/20 08:27:40;;;;;;;21.92;17.45;;;;;;;17.76;73.86;96989.50;10627322;27;20217;-68
2023/05/20 08:32:41;;;;;;;24.08;18.20;;;;;;;17.52;76.34;97020.75;10608680;27;20185;-66
2023/05/20 08:37:41;;;;;;;22.33;17.40;;;;;;;17.72;75.41;97012.09;10627119;27;20207;-68
2023/05/20 08:42:43;;;;;;;22.25;17.75;;;;;;;18.15;72.80;96985.44;10626928;27;20264;-67
2023/05/20 08:47:43;;;;;;;24.02;15.93;;;;;;;19.23;71.99;96989.97;10608038;27;20213;-68
2023/05/20 08:52:46;;;;;;;19.52;17.02;;;;;;;18.36;71.12;96965.91;10626282;27;20189;-67
2023/05/20 08:57:46;;;;;;;20.08;16.75;;;;;;;18.43;73.24;97000.44;10626324;27;20743;-66
2023/05/20 09:02:46;;;;;;;25.85;15.82;;;;;;;19.83;68.67;96954.53;10626034;27;20201;-68
2023/05/20 09:07:47;;;;;;;21.20;16.52;;;;;;;20.56;65.83;96924.13;10626016;27;20228;-67
2023/05/20 09:12:48;;;;;;;19.30;15.73;;;;;;;21.01;65.77;96943.50;10625776;27;20219;-66
2023/05/20 09:17:49;;;;;;;20.10;15.85;;;;;;;20.17;66.38;96945.44;10623874;27;20199;-68
2023/05/20 09:22:52;;;;;;;17.67;15.50;;;;;;;20.66;67.05;96967.91;10625285;27;20197;-68
2023/05/20 09:27:52;;;;;;;18.60;15.00;;;;;;;21.46;63.48;96934.47;10624808;27;20249;-67
2023/05/20 09:32:57;;;;;;;18.65;15.93;;;;;;;21.35;60.94;96884.56;10624926;27;20188;-67
2023/05/20 09:37:57;;;;;;;20.88;16.92;;;;;;;21.14;63.14;96915.09;10624785;27;20675;-67
2023/05/20 09:43:10;;;;;;;18.25;15.30;;;;;;;21.44;62.62;96914.41;10624334;27;20272;-67
2023/05/20 09:48:11;;;;;;;19.73;15.43;;;;;;;20.75;65.43;96954.31;10623650;27;20296;-67
2023/05/20 09:53:12;;;;;;;18.60;14.98;;;;;;;21.36;63.74;96921.66;10605843;27;20193;-67
2023/05/20 09:58:13;;;;;;;18.40;14.75;;;;;;;21.46;64.29;96926.47;10623557;27;20237;-66
2023/05/20 10:03:13;;;;;;;19.13;15.80;;;;;;;21.35;63.63;96916.56;10623717;27;20287;-67
2023/05/20 10:08:31;;;;;;;16.20;12.63;;;;;;;23.09;59.99;96883.09;10623511;27;20216;-68
2023/05/20 10:13:49;;;;;;;15.05;13.45;;;;;;;22.92;58.89;96855.38;10604885;27;20291;-67
2023/05/20 10:19:21;;;;;;;17.08;13.38;;;;;;;23.30;58.49;96854.94;10605030;27;20224;-67
2023/05/20 10:24:28;;;;;;;18.65;14.18;;;;;;;22.75;58.04;96839.25;10622425;27;20217;-67
2023/05/20 10:29:29;;;;;;;15.13;13.50;;;;;;;22.51;60.94;96897.13;10622487;27;20189;-68
2023/05/20 10:34:44;;;;;;;21.95;15.18;;;;;;;22.88;59.04;96855.06;10623702;27;20209;-68
2023/05/20 10:39:44;;;;;;;20.35;16.13;;;;;;;22.32;60.27;96867.84;10625482;27;20773;-68
2023/05/20 10:44:46;;;;;;;18.88;15.07;;;;;;;22.59;60.12;96878.13;10620681;27;20225;-68
2023/05/20 10:49:46;;;;;;;20.95;15.57;;;;;;;23.32;56.56;96827.97;10621262;27;20192;-68
2023/05/20 10:54:56;;;;;;;18.73;15.23;;;;;;;22.79;60.28;96878.63;10620649;27;20236;-68
2023/05/20 10:59:58;;;;;;;17.17;14.40;;;;;;;22.07;61.16;96875.97;10620583;27;20195;-68
2023/05/20 11:04:58;;;;;;;19.70;14.55;;;;;;;22.70;58.96;96855.97;10620223;27;20225;-68
2023/05/20 11:09:59;;;;;;;16.13;14.18;;;;;;;23.13;57.94;96827.31;10602681;27;20209;-66
2023/05/20 11:15:00;;;;;;;16.10;13.10;;;;;;;23.05;58.51;96852.50;10621082;27;20208;-68
2023/05/20 11:20:01;;;;;;;22.42;14.18;;;;;;;23.18;60.26;96878.19;10620787;27;20200;-66
2023/05/20 11:25:05;;;;;;;18.05;15.20;;;;;;;23.62;58.66;96854.53;10620568;27;20213;-68
2023/05/20 11:30:06;;;;;;;15.50;13.77;;;;;;;23.76;57.71;96828.31;10620574;27;20193;-67
2023/05/20 11:35:07;;;;;;;17.60;13.25;;;;;;;24.65;56.80;96826.19;10601981;27;20237;-69
2023/05/20 11:40:08;;;;;;;19.63;14.93;;;;;;;23.03;59.27;96835.88;10619867;27;20185;-68
2023/05/20 11:45:12;;;;;;;18.63;15.35;;;;;;;22.25;62.69;96857.22;10620127;28;20298;-67
2023/05/20 11:50:17;;;;;;;18.73;15.68;;;;;;;21.46;65.55;96893.69;10620105;28;20185;-67
2023/05/20 11:55:17;;;;;;;18.08;15.25;;;;;;;22.60;62.93;96863.72;10618235;22;20635;-66
2023/05/20 12:00:18;;;;;;;19.10;14.82;;;;;;;22.90;60.68;96836.13;10532303;28;20202;-66
2023/05/20 12:05:19;;;;;;;21.00;15.35;;;;;;;23.60;59.32;96829.91;10550775;28;20225;-66
2023/05/20 12:10:19;;;;;;;18.40;14.02;;;;;;;23.39;60.26;96842.03;10619360;28;20200;-66
2023/05/20 12:15:19;;;;;;;17.13;13.43;;;;;;;24.47;57.51;96806.59;10619476;28;20208;-66
2023/05/20 12:20:22;;;;;;;22.90;14.18;;;;;;;25.22;56.13;96811.72;10619468;28;20220;-66
2023/05/20 12:25:22;;;;;;;18.48;14.95;;;;;;;25.40;53.89;96765.06;10619163;28;20714;-65
2023/05/20 12:30:23;;;;;;;17.10;13.80;;;;;;;25.30;53.95;96752.34;10619341;28;20346;-67
2023/05/20 12:35:38;;;;;;;16.52;13.68;;;;;;;24.61;56.01;96768.78;10618849;28;20201;-66
2023/05/20 12:40:38;;;;;;;15.93;13.50;;;;;;;25.46;54.68;96753.31;10619195;28;20284;-65
2023/05/20 12:45:38;;;;;;;21.90;14.32;;;;;;;23.64;58.63;96787.44;10618998;28;20224;-67
2023/05/20 12:50:39;;;;;;;19.55;14.38;;;;;;;22.27;62.46;96811.63;10620812;27;20193;-68
2023/05/20 12:55:39;;;;;;;18.85;14.57;;;;;;;22.05;64.12;96838.84;10626219;27;20237;-67
2023/05/20 13:00:40;;;;;;;16.80;13.60;;;;;;;23.91;60.11;96811.78;10626258;27;20280;-67
2023/05/20 13:05:40;;;;;;;18.35;14.40;;;;;;;24.23;58.14;96763.09;10626132;27;20217;-67
2023/05/20 13:10:40;;;;;;;18.27;13.52;;;;;;;23.92;58.00;96761.75;10625690;27;20257;-67
2023/05/20 13:15:41;;;;;;;17.40;14.35;;;;;;;22.96;60.82;96777.22;10625404;27;20292;-67
2023/05/20 13:20:42;;;;;;;15.90;14.20;;;;;;;22.74;62.38;96786.84;10625577;27;20193;-67
2023/05/20 13:25:43;;;;;;;19.48;14.82;;;;;;;22.02;65.33;96843.78;10624923;27;20236;-67
2023/05/20 13:30:43;;;;;;;16.58;14.13;;;;;;;22.13;63.46;96802.19;10625137;27;20193;-67
2023/05/20 13:35:43;;;;;;;20.17;14.23;;;;;;;22.14;64.88;96825.16;10624601;27;20292;-67
2023/05/20 13:40:44;;;;;;;19.23;16.10;;;;;;;21.24;66.92;96846.16;10624721;27;20238;-67
2023/05/20 13:45:44;;;;;;;20.17;14.60;;;;;;;21.04;68.28;96846.31;10624316;27;20233;-66
2023/05/20 13:50:45;;;;;;;23.27;14.88;;;;;;;21.62;66.03;96799.78;10624182;27;20201;-66
2023/05/20 13:55:45;;;;;;;20.05;14.65;;;;;;;21.63;66.62;96811.28;10624045;27;20225;-66
2023/05/20 14:00:46;;;;;;;17.17;13.23;;;;;;;22.17;65.74;96804.16;10623648;27;20181;-67
2023/05/20 14:05:46;;;;;;;21.20;14.13;;;;;;;22.66;63.99;96779.22;10623064;27;20227;-67
2023/05/20 14:10:46;;;;;;;16.15;13.25;;;;;;;22.85;62.26;96756.69;10623269;27;20189;-67
2023/05/20 14:15:47;;;;;;;16.20;12.57;;;;;;;22.82;63.03;96764.31;10623168;27;20210;-67
2023/05/20 14:20:48;;;;;;;16.88;13.15;;;;;;;22.88;63.47;96780.25;10623195;27;20273;-66
2023/05/20 14:25:48;;;;;;;17.00;12.48;;;;;;;23.90;60.25;96737.91;10622454;27;20309;-66
2023/05/20 14:30:49;;;;;;;16.08;12.35;;;;;;;22.67;63.32;96757.59;10623026;27;20189;-67
2023/05/20 14:35:50;;;;;;;16.45;11.35;;;;;;;23.66;60.94;96729.97;10622150;27;20250;-66
2023/05/20 14:40:50;;;;;;;16.13;12.38;;;;;;;22.40;63.12;96736.72;10622226;27;20212;-67
2023/05/20 14:45:51;;;;;;;16.10;12.55;;;;;;;21.85;65.47;96766.25;10621706;27;20228;-66
2023/05/20 14:50:51;;;;;;;18.63;12.38;;;;;;;21.16;67.08;96780.66;10621773;27;20208;-66
2023/05/20 14:55:52;;;;;;;17.13;12.32;;;;;;;21.64;67.25;96783.56;10621753;27;20673;-66
2023/05/20 15:00:52;;;;;;;15.57;12.10;;;;;;;22.56;65.95;96766.44;10621226;27;20579;-65
2023/05/20 15:05:53;;;;;;;19.17;12.50;;;;;;;22.35;64.91;96768.63;10621361;27;20590;-67
2023/05/20 15:10:53;;;;;;;20.92;12.57;;;;;;;21.64;66.21;96754.25;10620960;27;20546;-67
2023/05/20 15:15:53;;;;;;;18.60;12.75;;;;;;;21.27;66.83;96749.78;10620773;27;20209;-66
2023/05/20 15:20:54;;;;;;;18.20;12.25;;;;;;;20.94;68.89;96763.47;10620780;27;20197;-67
2023/05/20 15:25:57;;;;;;;16.92;12.90;;;;;;;21.21;68.99;96772.00;10620397;27;20305;-66
2023/05/20 15:30:57;;;;;;;14.85;12.45;;;;;;;22.17;65.14;96728.66;10620544;27;20185;-66
2023/05/20 15:35:58;;;;;;;15.10;12.10;;;;;;;22.69;63.31;96711.97;10620250;27;20201;-66
2023/05/20 15:40:58;;;;;;;15.40;11.65;;;;;;;21.84;66.36;96740.66;10620288;27;20257;-66
2023/05/20 15:46:00;;;;;;;16.88;12.93;;;;;;;20.58;69.43;96755.19;10620041;28;20225;-66
2023/05/20 15:51:00;;;;;;;15.93;13.02;;;;;;;20.78;70.09;96755.03;10620059;28;20560;-66
2023/05/20 15:56:00;;;;;;;15.07;12.07;;;;;;;21.95;67.09;96728.38;10619726;28;20236;-66
2023/05/20 16:01:01;;;;;;;18.13;12.23;;;;;;;23.00;62.36;96670.66;10619891;28;20686;-66
2023/05/20 16:06:01;;;;;;;18.20;12.30;;;;;;;22.27;63.89;96684.34;10619688;28;20220;-66
2023/05/20 16:11:03;;;;;;;22.38;13.50;;;;;;;21.47;65.80;96706.88;10619790;28;20295;-66
2023/05/20 16:16:03;;;;;;;21.98;14.10;;;;;;;20.60;69.17;96739.81;10600829;28;20632;-66
2023/05/20 16:21:06;;;;;;;18.48;13.80;;;;;;;20.58;70.25;96747.22;10619085;28;20281;-66
2023/05/20 16:26:06;;;;;;;19.45;13.63;;;;;;;20.39;69.85;96733.03;10622056;27;20304;-66
2023/05/20 16:31:06;;;;;;;16.98;13.85;;;;;;;20.97;69.23;96720.41;10627399;27;20574;-66
2023/05/20 16:36:07;;;;;;;20.70;14.95;;;;;;;20.93;67.97;96716.56;10627227;27;20197;-66
2023/05/20 16:41:07;;;;;;;18.08;13.80;;;;;;;21.07;68.78;96722.53;10626983;27;20219;-66
2023/05/20 16:46:07;;;;;;;16.95;14.23;;;;;;;20.39;70.38;96746.34;10626711;27;20303;-66
2023/05/20 16:51:08;;;;;;;25.20;15.25;;;;;;;20.03;71.57;96745.22;10626801;27;20215;-66
2023/05/20 16:56:08;;;;;;;20.98;15.80;;;;;;;20.05;71.55;96739.69;10626176;27;20233;-66
2023/05/20 17:01:09;;;;;;;21.60;15.65;;;;;;;19.78;71.96;96747.81;10626382;27;20297;-66
2023/05/20 17:06:09;;;;;;;20.77;15.02;;;;;;;20.05;72.34;96759.09;10625810;27;20243;-66
2023/05/20 17:11:09;;;;;;;22.85;15.35;;;;;;;20.03;72.45;96760.34;10625845;27;20191;-65
2023/05/20 17:16:10;;;;;;;20.33;15.68;;;;;;;19.62;73.40;96767.72;10625572;27;20284;-66
2023/05/20 17:21:11;;;;;;;20.70;15.85;;;;;;;19.36;74.69;96776.63;10625364;27;20249;-66
2023/05/20 17:26:11;;;;;;;19.38;16.33;;;;;;;19.40;75.27;96783.13;10625281;27;20304;-66
2023/05/20 17:31:12;;;;;;;21.17;15.73;;;;;;;19.10;76.00;96778.34;10624888;27;20177;-66
2023/05/20 17:36:13;;;;;;;21.52;16.83;;;;;;;19.03;76.66;96780.19;10624010;27;20212;-66
2023/05/20 17:41:13;;;;;;;21.92;16.17;;;;;;;18.89;77.53;96788.19;10624196;27;20244;-66
2023/05/20 17:46:14;;;;;;;25.40;17.27;;;;;;;18.61;78.66;96788.41;10624326;27;20213;-65
2023/05/20 17:51:15;;;;;;;23.80;16.75;;;;;;;18.25;79.67;96794.94;10624343;27;20188;-66
2023/05/20 17:56:16;;;;;;;22.58;17.23;;;;;;;18.25;80.26;96791.47;10613325;22;20234;-64
2023/05/20 18:01:16;;;;;;;21.25;16.23;;;;;;;17.95;82.00;96802.47;10579009;28;20621;-61
2023/05/20 18:06:16;;;;;;;25.35;16.88;;;;;;;17.76;80.71;96798.72;10580586;28;20221;-63
2023/05/20 18:11:17;;;;;;;23.42;16.42;;;;;;;17.33;83.16;96796.31;10562639;28;20201;-62
2023/05/20 18:16:17;;;;;;;19.15;16.40;;;;;;;17.14;84.52;96798.69;10580262;28;20582;-64
2023/05/20 18:21:18;;;;;;;23.23;17.30;;;;;;;16.79;85.26;96803.13;10562335;28;20251;-66
2023/05/20 18:26:19;;;;;;;26.15;18.77;;;;;;;16.68;86.88;96804.47;10579886;28;20244;-65
2023/05/20 18:31:19;;;;;;;28.83;16.95;;;;;;;16.46;87.76;96809.81;10579608;28;20263;-65
2023/05/20 18:36:19;;;;;;;25.30;17.95;;;;;;;16.13;91.06;96828.03;10579659;28;20284;-64
2023/05/20 18:41:21;;;;;;;23.27;18.45;;;;;;;15.88;93.27;96833.69;10579184;28;20193;-64
2023/05/20 18:46:21;;;;;;;26.77;19.17;;;;;;;15.79;95.09;96837.41;10579254;28;20216;-62
2023/05/20 18:51:21;;;;;;;26.77;19.58;;;;;;;15.52;96.88;96839.72;10578516;28;20202;-65
2023/05/20 18:56:22;;;;;;;24.17;18.13;;;;;;;15.38;99.03;96846.66;10578755;28;20267;-65
2023/05/20 19:01:22;;;;;;;27.77;19.50;;;;;;;15.28;100.00;96854.88;10578828;28;20229;-63
2023/05/20 19:06:23;;;;;;;24.45;18.73;;;;;;;15.20;100.00;96857.59;10576617;28;20273;-63
2023/05/20 19:11:23;;;;;;;24.40;18.35;;;;;;;15.07;100.00;96865.31;10578595;28;20202;-63
2023/05/20 19:16:24;;;;;;;27.35;19.33;;;;;;;14.86;100.00;96858.13;10577851;28;20296;-63
2023/05/20 19:21:25;;;;;;;26.85;20.38;;;;;;;14.69;100.00;96871.44;10577971;28;20228;-62
2023/05/20 19:26:25;;;;;;;27.70;19.20;;;;;;;14.59;100.00;96871.69;10577661;28;20304;-63
2023/05/20 19:31:26;;;;;;;26.65;19.92;;;;;;;14.45;100.00;96880.34;10577616;28;20193;-62
2023/05/20 19:36:26;;;;;;;26.42;18.92;;;;;;;14.34;100.00;96878.94;10577636;28;20299;-63
2023/05/20 19:41:26;;;;;;;26.52;19.38;;;;;;;14.11;100.00;96873.69;10577352;28;20270;-64
2023/05/20 19:46:27;;;;;;;25.05;20.50;;;;;;;13.88;100.00;96882.38;10576981;28;20251;-65
2023/05/20 19:51:27;;;;;;;32.17;22.70;;;;;;;13.64;100.00;96874.59;10559179;28;20194;-63
2023/05/20 19:56:27;;;;;;;30.60;22.63;;;;;;;13.50;100.00;96871.69;10577089;28;20240;-63
2023/05/20 20:01:28;;;;;;;30.45;24.13;;;;;;;13.26;100.00;96875.22;10580691;28;20296;-63
2023/05/20 20:06:28;;;;;;;29.48;21.73;;;;;;;13.15;100.00;96871.09;10585962;28;20218;-63
2023/05/20 20:11:29;;;;;;;28.10;21.15;;;;;;;12.93;100.00;96867.38;10585550;28;20200;-63
2023/05/20 20:16:29;;;;;;;27.45;21.30;;;;;;;12.69;100.00;96868.25;10585421;28;20202;-62
2023/05/20 20:21:29;;;;;;;29.35;21.40;;;;;;;12.58;100.00;96876.47;10585231;28;20189;-64
2023/05/20 20:26:30;;;;;;;29.38;22.05;;;;;;;12.26;100.00;96873.66;10585039;28;20638;-64
2023/05/20 20:31:30;;;;;;;31.10;22.85;;;;;;;12.01;100.00;96880.69;10585174;28;20571;-64
2023/05/20 20:36:31;;;;;;;30.45;21.73;;;;;;;11.90;100.00;96879.16;10584404;28;20577;-64
2023/05/20 20:41:31;;;;;;;31.27;24.02;;;;;;;11.70;100.00;96867.28;10584584;28;20276;-63
2023/05/20 20:46:32;;;;;;;29.55;22.67;;;;;;;11.50;100.00;96872.81;10584061;28;20217;-63
2023/05/20 20:51:32;;;;;;;28.17;21.73;;;;;;;11.38;100.00;96871.47;10584118;28;20280;-63
2023/05/20 20:56:35;;;;;;;33.30;24.17;;;;;;;11.26;100.00;96873.53;10584085;28;20570;-63
2023/05/20 21:01:36;;;;;;;32.22;23.48;;;;;;;10.97;100.00;96866.81;10583636;28;20197;-63
2023/05/20 21:06:36;;;;;;;39.35;28.73;;;;;;;10.97;100.00;96871.25;10583636;28;20205;-63
2023/05/20 21:11:41;;;;;;;34.70;25.15;;;;;;;10.69;100.00;96874.84;10583350;28;20663;-63
2023/05/20 21:16:41;;;;;;;30.25;23.25;;;;;;;10.82;100.00;96876.22;10583281;28;20216;-65
2023/05/20 21:21:42;;;;;;;31.88;25.50;;;;;;;10.66;100.00;96862.03;10583053;28;20285;-63
2023/05/20 21:26:42;;;;;;;38.13;25.38;;;;;;;10.46;100.00;96873.66;10582548;28;20221;-65
2023/05/20 21:31:42;;;;;;;39.25;26.02;;;;;;;10.53;100.00;96874.72;10582947;28;20202;-64
2023/05/20 21:36:43;;;;;;;41.13;27.20;;;;;;;10.57;100.00;96868.19;10581889;28;20280;-64
2023/05/20 21:41:43;;;;;;;37.42;26.27;;;;;;;10.51;100.00;96877.47;10582452;28;20192;-63
2023/05/20 21:46:43;;;;;;;40.50;26.83;;;;;;;10.42;100.00;96867.91;10581797;28;20234;-64
2023/05/20 21:51:44;;;;;;;35.63;25.98;;;;;;;10.40;100.00;96862.03;10581570;28;20303;-65
2023/05/20 21:56:44;;;;;;;38.63;24.95;;;;;;;10.38;100.00;96863.13;10581414;28;20316;-64
2023/05/20 22:01:45;;;;;;;38.30;25.17;;;;;;;10.41;100.00;96857.59;10580944;28;20464;-64
2023/05/20 22:06:45;;;;;;;32.73;23.90;;;;;;;10.40;100.00;96848.09;10581332;28;20222;-65
2023/05/20 22:11:46;;;;;;;33.63;24.50;;;;;;;10.39;100.00;96846.47;10580659;28;20331;-64
2023/05/20 22:16:47;;;;;;;35.08;24.65;;;;;;;10.30;100.00;96842.91;10580742;28;20210;-64
2023/05/20 22:21:47;;;;;;;31.30;23.45;;;;;;;10.38;100.00;96844.81;10580255;28;20194;-64
2023/05/20 22:26:47;;;;;;;33.60;24.35;;;;;;;10.65;100.00;96838.63;10579380;28;20300;-63
2023/05/20 22:31:48;;;;;;;34.83;23.08;;;;;;;10.99;100.00;96830.78;10580092;28;20194;-64
2023/05/20 22:36:48;;;;;;;34.53;22.13;;;;;;;11.26;100.00;96813.22;10579681;28;20297;-63
2023/05/20 22:41:48;;;;;;;27.73;21.52;;;;;;;10.99;100.00;96809.81;10579820;28;20555;-64